Jack C. Davis Observatory, Carson City, Nevada Weather observations

Data are for observation ending at time listed.
 Day   Time    Ave.   Ave.  Ave.  Vector   Max.   Stn.    Total    Solar   Ave.  
  of    of     Air    Rel.  Wind   Wind    Wind   Baro.  Precip.   Rad.    Soil  
Year   Day     Temp.  Hum.  Speed  Dir.    Gust   Pres.                    Temp. 
2014   (PST)    F      %     mph   deg.    mph     mb.     in.     W/m2     F   
------------------------------------------------------------------------------
 209    7:30   79.1    23    2.1   214      4.0   852.1    0.00     421    999.0
 209    7:40   79.4    22    1.9   355      4.7   852.1    0.00     441    999.0
 209    7:50   79.1    24    2.8    89      4.7   852.1    0.00     478    999.0
 209    8:00   79.6    24    2.5   118      5.2   852.1    0.00     545    999.0
 209    8:10   82.1    21    2.0   176      4.4   852.0    0.00     502    999.0
 209    8:20   82.8    21    1.7   324      3.8   852.0    0.00     545    999.0
 209    8:30   82.2    22    3.6   116      7.4   852.0    0.00     551    999.0
 209    8:40   82.4    21    2.1   125      4.5   852.1    0.00     598    999.0
 209    8:50   85.0    18    2.4    24      9.0   852.0    0.00     647    999.0
 209    9:00   84.7    16    3.9   318      7.9   852.0    0.00     700    999.0
 209    9:10   84.7    15    4.7   325      9.5   852.0    0.00     737    999.0
 209    9:20   85.4    15    4.2   327      8.9   851.9    0.00     762    999.0
 209    9:30   85.8    15    3.9   335      8.2   851.9    0.00     759    999.0
 209    9:40   86.2    15    3.2   346      7.4   851.8    0.00     791    999.0
 209    9:50   87.3    14    3.3   352      7.7   851.8    0.00     833    999.0
 209   10:00   88.1    14    3.8   351      8.2   851.7    0.00     827    999.0
 209   10:10   88.3    14    3.5     4      6.9   851.6    0.00     818    999.0
 209   10:20   87.6    14    5.4    57     11.1   851.6    0.00     865    999.0
 209   10:30   88.5    14    3.3    46      8.2   851.6    0.00     902    999.0
 209   10:40   90.3    13    3.5    43      9.1   851.5    0.00     914    999.0
 209   10:50   88.3    14    5.6    77     11.0   851.5    0.00     925    999.0
 209   11:00   88.2    14    6.9   110     10.8   851.4    0.00     938    999.0
 209   11:10   88.8    14    5.5   105      9.5   851.3    0.00     932    999.0
 209   11:20   91.0    13    3.8   173      7.8   851.2    0.00     888    999.0
 209   11:30   91.1    13    2.6   102      8.4   851.1    0.00     888    999.0
 209   11:40   91.8    13    2.6    94      5.6   851.0    0.00     903    999.0
 209   11:50   92.7    13    5.0   212     12.3   850.9    0.00     988    999.0
 209   12:00   92.2    13    9.7   212     14.9   850.7    0.00     981    999.0
 209   12:10   91.8    13    9.4   242     19.0   850.6    0.00     895    999.0
 209   12:20   91.6    14    9.2   252     14.9   850.5    0.00     932    999.0
 209   12:30   91.3    14   10.1   244     17.1   850.4    0.00     943    999.0
 209   12:40   92.1    14   10.3   254     16.5   850.3    0.00     984    999.0
 209   12:50   92.0    14   12.5   248     20.6   850.2    0.00     979    999.0
 209   13:00   91.5    14   14.3   244     22.2   850.2    0.00    1020    999.0
 209   13:10   90.8    14   14.5   246     21.6   850.2    0.00     763    999.0
 209   13:20   90.3    15   14.1   240     20.6   850.1    0.00     829    999.0
 209   13:30   90.6    15   15.2   248     23.1   850.1    0.00     887    999.0
 209   13:40   90.9    15   11.8   244     18.3   850.1    0.00     832    999.0
 209   13:50   91.9    14   12.0   268     19.9   850.1    0.00     957    999.0
 209   14:00   91.5    15   13.3   251     22.8   850.0    0.00     917    999.0
 209   14:10   91.5    15   12.8   264     18.5   849.9    0.00     863    999.0
 209   14:20   91.3    15   11.3   276     19.0   849.9    0.00     717    999.0
 209   14:30   91.1    15   13.3   263     22.0   849.8    0.00     679    999.0
 209   14:40   88.9    16   14.9   259     24.2   849.8    0.00     283    999.0
 209   14:50   87.2    17   13.4   255     23.1   850.0    0.00     121    999.0
 209   15:00   86.4    18   10.1   262     18.0   850.3    0.00      87    999.0
 209   15:10   86.0    18    6.2    41     13.8   850.6    0.00      67    999.0
 209   15:20   84.3    21    7.4    63     14.5   850.8    0.00      54    999.0
 209   15:30   83.1    23    7.3    60     13.5   850.8    0.00      50    999.0
 209   15:40   82.4    24    7.2    68     14.7   850.9    0.00      69    999.0
 209   15:50   81.8    24    7.9    99     14.4   850.9    0.00     120    999.0
 209   16:00   82.6    22    7.9    94     16.3   850.8    0.00     131    999.0
 209   16:10   83.4    22    4.9   145      9.2   850.9    0.00     144    999.0
 209   16:20   83.8    22    6.0   208     10.3   851.0    0.00     126    999.0
 209   16:30   84.2    22    8.4   158     13.8   850.9    0.00     282    999.0
 209   16:40   85.6    21    7.7   190     14.4   850.7    0.00     426    999.0
 209   16:50   86.1    20    7.6   174     12.1   850.6    0.00     377    999.0
 209   17:00   87.5    19    8.4   177     13.0   850.5    0.00     458    999.0
 209   17:10   87.4    20    6.7   160     11.8   850.5    0.00     410    999.0
 209   17:20   88.3    19    4.7   276     15.6   850.6    0.00     365    999.0
 209   17:30   84.2    22    9.0   260     13.9   850.7    0.00     108    999.0
 209   17:40   82.8    23    7.8   242     14.2   850.8    0.00      65    999.0
 209   17:50   82.0    24    8.9   241     14.9   850.9    0.00      52    999.0
 209   18:00   81.4    24    9.1   317     16.6   851.4    0.00      44    999.0
 209   18:10   79.5    27    8.2    24     22.0   852.0    0.00      18    999.0
 209   18:20   78.1    30    8.4   347     24.2   852.2    0.00      16    999.0
 209   18:30   76.6    34    6.9   341     18.6   852.4    0.00      20    999.0
 209   18:40   75.7    34    9.4   319     16.9   852.5    0.00      25    999.0
 209   18:50   75.5    35    7.1   323     12.1   852.7    0.00      14    999.0
 209   19:00   74.8    36    7.8   308     12.8   852.9    0.00       5    999.0
 209   19:10   74.5    36    5.7   310     10.9   853.0    0.00       5    999.0
 209   19:20   74.3    36    5.6   281      8.9   852.8    0.00       5    999.0
 209   19:30   74.3    36    4.9   249      7.3   852.5    0.00       0    999.0
 209   19:40   74.4    35    5.9   250     10.6   852.5    0.00       0    999.0
 209   19:50   75.3    33    2.7   237      5.6   852.5    0.00       0    999.0
 209   20:00   75.0    33    1.6   172      3.7   852.5    0.00       0    999.0
 209   20:10   74.4    34    3.0   193      4.4   852.5    0.00       0    999.0
 209   20:20   74.5    33    3.2   252      5.2   852.6    0.00       0    999.0
 209   20:30   74.5    36    3.5    87      6.8   852.6    0.00       0    999.0
 209   20:40   72.7    44    3.5    71      8.3   852.5    0.00       0    999.0
 209   20:50   72.3    45    2.4    10      5.5   852.5    0.00       0    999.0
 209   21:00   71.8    45    2.6   298      4.5   852.4    0.00       0    999.0
 209   21:10   73.1    38    3.0   279     10.1   852.3    0.00       0    999.0
 209   21:20   73.1    40    3.1    60      5.7   852.2    0.00       0    999.0
 209   21:30   72.1    45    3.9    76      6.0   852.0    0.00       0    999.0
 209   21:40   71.5    47    4.2    88      6.8   852.0    0.00       0    999.0
 209   21:50   70.8    50    5.0    77      8.4   852.0    0.00       0    999.0
 209   22:00   70.5    51    3.8    70      5.7   852.0    0.00       0    999.0
 209   22:10   70.6    50    3.0    53      7.1   851.9    0.00       0    999.0
 209   22:20   70.4    51    1.6    53      4.5   851.8    0.00       0    999.0
 209   22:30   70.6    49    3.5    52      6.5   851.9    0.00       0    999.0
 209   22:40   70.8    48    4.2    50      7.6   851.8    0.00       0    999.0
 209   22:50   71.1    46    3.4    40      6.5   851.8    0.00       0    999.0
 209   23:00   71.1    46    3.9    46      6.5   851.7    0.00       0    999.0
 209   23:10   71.0    45    4.1    46      7.2   851.7    0.00       0    999.0
 209   23:20   70.9    46    2.9    30      5.9   851.7    0.00       0    999.0
 209   23:30   70.9    45    2.5    18      5.5   851.7    0.00       0    999.0
 209   23:40   70.8    45    2.5    20      3.8   851.8    0.00       0    999.0
 209   23:50   70.6    46    2.5    26      4.6   851.8    0.00       0    999.0
 210    0:00   70.4    46    1.7    21      4.1   851.7    0.00       0    999.0
 210    0:10   70.2    46    2.2    27      4.7   851.6    0.00       0    999.0
 210    0:20   70.1    47    1.8     5      3.8   851.6    0.00       0    999.0
 210    0:30   69.7    47    2.2   311      3.8   851.5    0.00       0    999.0
 210    0:40   69.7    47    1.8   309      3.0   851.6    0.00       0    999.0
 210    0:50   69.3    47    1.7   309      4.3   851.6    0.00       0    999.0
 210    1:00   69.5    47    1.4   334      3.9   851.6    0.00       0    999.0
 210    1:10   69.3    47    2.0   338      3.7   851.6    0.00       0    999.0
 210    1:20   69.1    49    1.8   336      3.0   851.7    0.00       0    999.0
 210    1:30   68.9    49    2.2   337      4.1   851.6    0.00       0    999.0
 210    1:40   68.9    50    1.5     3      3.3   851.7    0.00       0    999.0
 210    1:50   69.1    48    1.6    13      3.0   851.8    0.00       0    999.0
 210    2:00   69.3    49    0.4    56      1.9   851.8    0.00       0    999.0
 210    2:10   68.8    49    1.8   272      3.5   851.9    0.00       0    999.0
 210    2:20   68.9    48    2.5   265      4.6   851.9    0.00       0    999.0
 210    2:30   69.3    48    2.3   332      5.4   852.0    0.00       0    999.0
 210    2:40   69.1    48    2.6   272      4.1   852.0    0.00       0    999.0
 210    2:50   69.1    47    1.7   304      3.3   852.0    0.00       0    999.0
 210    3:00   68.9    48    3.1   256      5.7   852.0    0.00       0    999.0
 210    3:10   68.3    49    4.0   261      5.9   852.1    0.00       0    999.0
 210    3:20   68.3    50    5.0   258      6.9   852.0    0.00       0    999.0
 210    3:30   70.3    38    9.1   221     17.0   851.8    0.00       0    999.0
 210    3:40   74.1    28    9.0   244     16.8   851.7    0.00       0    999.0
 210    3:50   75.2    25   11.5   246     18.2   851.6    0.00       0    999.0
 210    4:00   75.5    24   10.0   255     16.6   851.6    0.00       0    999.0
 210    4:10   75.1    25   12.0   248     20.4   851.5    0.00       0    999.0
 210    4:20   73.9    33    5.4     1     11.9   851.7    0.00       0    999.0
 210    4:30   69.8    46    3.3    68      6.2   851.8    0.00       0    999.0
 210    4:40   69.4    46    2.4    29      5.4   851.8    0.00       0    999.0
 210    4:50   69.2    46    3.0    56      4.6   851.8    0.00       0    999.0
 210    5:00   68.8    46    2.2   267      4.1   851.8    0.00       1    999.0
 210    5:10   68.8    45    1.6   244      3.8   851.9    0.00       6    999.0
 210    5:20   68.8    45    1.9   260      3.3   852.0    0.00      19    999.0
 210    5:30   68.9    45    3.0   317      4.9   851.9    0.00      25    999.0
 210    5:40   69.2    43    2.7   334      4.7   852.0    0.00      34    999.0
 210    5:50   69.8    41    1.9    41      3.5   852.0    0.00      28    999.0
 210    6:00   69.8    41    1.4   309      3.5   852.0    0.00      29    999.0
 210    6:10   69.9    41    1.8   322      3.8   852.0    0.00      37    999.0
 210    6:20   70.1    40    2.1    33      3.9   852.1    0.00      48    999.0
 210    6:30   70.1    41    2.1     5      3.8   852.2    0.00      64    999.0
 210    6:40   70.3    41    1.7   328      3.9   852.1    0.00      85    999.0
 210    6:50   70.8    40    2.6    57      5.5   852.2    0.00     105    999.0
 210    7:00   70.6    40    2.2    78      4.8   852.3    0.00     109    999.0
 210    7:10   71.3    40    0.7   269      2.7   852.3    0.00     108    999.0
 210    7:20   70.8    42    2.6   285      3.8   852.3    0.00     122    999.0

Return to Yerington, Nevada graphs page.


Western Regional Climate Center,wrcc@dri.edu